createdAt,value
2019-03-02T00:00:53.907Z,95.52
2019-03-02T00:03:19.688Z,95.79
2019-03-02T00:05:45.475Z,95.72
2019-03-02T00:08:11.272Z,95.85
2019-03-02T00:10:40.673Z,95.46
2019-03-02T00:13:07.515Z,95.50
2019-03-02T00:15:32.787Z,95.78
2019-03-02T00:18:00.033Z,95.45
2019-03-02T00:20:25.914Z,95.48
2019-03-02T00:22:51.729Z,95.62
2019-03-02T00:25:17.820Z,95.39
2019-03-02T00:27:43.640Z,95.59
2019-03-02T00:30:11.224Z,95.56
2019-03-02T00:32:37.108Z,95.51
2019-03-02T00:35:07.172Z,95.43
2019-03-02T00:37:32.855Z,95.45
2019-03-02T00:39:59.024Z,95.59
2019-03-02T00:42:27.866Z,95.65
2019-03-02T00:44:53.673Z,95.30
2019-03-02T00:47:19.746Z,95.48
2019-03-02T00:49:45.848Z,95.62
2019-03-02T00:52:11.663Z,95.16
2019-03-02T00:54:43.440Z,95.58
2019-03-02T00:57:08.268Z,95.46
2019-03-02T00:59:35.793Z,94.91
2019-03-02T01:02:04.435Z,95.03
2019-03-02T01:04:29.742Z,95.16
2019-03-02T01:06:55.608Z,95.54
2019-03-02T01:09:24.345Z,95.14
2019-03-02T01:11:50.142Z,95.16
2019-03-02T01:14:17.207Z,95.26
2019-03-02T01:16:42.962Z,95.11
2019-03-02T01:19:14.655Z,95.04
2019-03-02T01:21:41.407Z,94.86
2019-03-02T01:24:07.771Z,95.08
2019-03-02T01:26:33.679Z,93.63
2019-03-02T01:28:59.826Z,93.88
2019-03-02T01:31:25.622Z,94.43
2019-03-02T01:33:51.458Z,93.46
2019-03-02T01:36:18.666Z,93.24
2019-03-02T01:38:44.788Z,93.34
2019-03-02T01:41:14.080Z,92.72
2019-03-02T01:43:41.451Z,92.29
2019-03-02T01:46:08.332Z,92.56
2019-03-02T01:48:34.405Z,92.23
2019-03-02T01:51:03.363Z,92.34
2019-03-02T01:53:29.513Z,92.17
2019-03-02T01:55:58.856Z,92.24
2019-03-02T01:58:27.885Z,91.92
2019-03-02T02:00:52.443Z,91.63
2019-03-02T02:03:18.268Z,91.37
2019-03-02T02:05:44.075Z,91.08
2019-03-02T02:08:10.783Z,90.88
2019-03-02T02:10:39.741Z,90.72
2019-03-02T02:13:06.228Z,90.77
2019-03-02T02:15:32.559Z,90.86
2019-03-02T02:17:58.356Z,90.41
2019-03-02T02:20:24.160Z,90.26
2019-03-02T02:22:53.108Z,90.73
2019-03-02T02:25:19.709Z,90.54
2019-03-02T02:27:48.448Z,90.49
2019-03-02T02:30:26.724Z,90.69
2019-03-02T02:32:53.024Z,90.76
2019-03-02T02:35:18.900Z,90.84
2019-03-02T02:37:45.026Z,90.22
2019-03-02T02:40:12.779Z,90.13
2019-03-02T02:42:43.426Z,89.90
2019-03-02T02:45:15.190Z,90.05
2019-03-02T02:47:41.153Z,89.88
2019-03-02T02:50:13.129Z,89.92
2019-03-02T02:52:38.938Z,89.90
2019-03-02T02:55:05.341Z,89.98
2019-03-02T02:57:33.509Z,90.18
2019-03-02T02:59:59.740Z,90.84
2019-03-02T03:02:25.571Z,91.07
2019-03-02T03:04:51.409Z,90.67
2019-03-02T03:07:17.209Z,90.30
2019-03-02T03:09:49.506Z,90.47
2019-03-02T03:12:17.968Z,90.03
2019-03-02T03:14:43.340Z,90.17
2019-03-02T03:17:09.171Z,89.71
2019-03-02T03:19:34.957Z,89.95
2019-03-02T03:22:02.381Z,89.83
2019-03-02T03:24:28.526Z,89.57
2019-03-02T03:26:54.437Z,89.08
2019-03-02T03:29:20.261Z,89.27
2019-03-02T03:31:46.071Z,89.25
2019-03-02T03:34:11.930Z,89.48
2019-03-02T03:36:37.973Z,89.49
2019-03-02T03:39:07.140Z,89.62
2019-03-02T03:41:33.212Z,89.29
2019-03-02T03:43:59.022Z,89.48
2019-03-02T03:46:24.831Z,89.60
2019-03-02T03:48:51.418Z,89.55
2019-03-02T03:51:18.609Z,89.61
2019-03-02T03:53:44.705Z,89.50
2019-03-02T03:56:10.829Z,89.55
2019-03-02T03:58:39.787Z,89.38
2019-03-02T04:01:04.435Z,89.08
2019-03-02T04:03:30.331Z,89.60
2019-03-02T04:05:56.489Z,89.67
2019-03-02T04:08:24.388Z,89.45
2019-03-02T04:10:50.550Z,89.31
2019-03-02T04:13:16.363Z,88.92
2019-03-02T04:15:43.459Z,89.37
2019-03-02T04:18:39.434Z,89.06
2019-03-02T04:21:05.245Z,88.84
2019-03-02T04:23:31.282Z,88.44
2019-03-02T04:25:58.257Z,88.23
2019-03-02T04:28:27.702Z,88.46
2019-03-02T04:30:51.807Z,88.10
2019-03-02T04:33:17.890Z,87.85
2019-03-02T04:35:43.803Z,87.38
2019-03-02T04:38:09.891Z,87.99
2019-03-02T04:40:35.679Z,87.57
2019-03-02T04:43:01.491Z,87.56
2019-03-02T04:45:27.688Z,87.56
2019-03-02T04:47:54.580Z,87.71
2019-03-02T04:50:23.501Z,87.82
2019-03-02T04:52:50.004Z,87.40
2019-03-02T04:55:16.046Z,86.99
2019-03-02T04:57:43.153Z,86.81
2019-03-02T05:00:13.926Z,87.13
2019-03-02T05:02:39.739Z,86.86
2019-03-02T05:05:08.439Z,87.29
2019-03-02T05:07:33.267Z,87.67
2019-03-02T05:09:59.110Z,88.28
2019-03-02T05:12:24.921Z,88.55
2019-03-02T05:14:50.721Z,88.85
2019-03-02T05:17:16.543Z,88.72
2019-03-02T05:19:42.631Z,88.67
2019-03-02T05:22:08.431Z,88.67
2019-03-02T05:24:34.240Z,88.25
2019-03-02T05:27:00.070Z,88.57
2019-03-02T05:29:25.868Z,88.67
2019-03-02T05:31:51.704Z,88.69
2019-03-02T05:34:17.502Z,89.36
2019-03-02T05:36:43.580Z,89.37
2019-03-02T05:39:09.382Z,88.66
2019-03-02T05:41:35.690Z,89.69
2019-03-02T05:44:02.906Z,89.55
2019-03-02T05:46:29.027Z,90.28
2019-03-02T05:48:55.129Z,91.00
2019-03-02T05:51:20.971Z,91.53
2019-03-02T05:53:46.798Z,92.13
2019-03-02T05:56:12.633Z,92.62
2019-03-02T05:58:38.413Z,93.12
2019-03-02T06:01:04.239Z,93.63
2019-03-02T06:03:30.045Z,93.81
2019-03-02T06:05:55.871Z,94.28
2019-03-02T06:08:21.688Z,94.71
2019-03-02T06:10:47.495Z,94.59
2019-03-02T06:13:14.398Z,94.62
2019-03-02T06:15:42.923Z,94.91
2019-03-02T06:18:08.805Z,94.80
2019-03-02T06:20:35.648Z,95.01
2019-03-02T06:23:02.318Z,95.44
2019-03-02T06:25:28.135Z,95.29
2019-03-02T06:27:53.950Z,95.46
2019-03-02T06:30:22.544Z,95.40
2019-03-02T06:32:48.335Z,95.53
2019-03-02T06:35:16.403Z,96.12
2019-03-02T06:37:42.245Z,95.99
2019-03-02T06:40:16.060Z,95.77
2019-03-02T06:42:41.848Z,95.76
2019-03-02T06:45:30.989Z,95.79
2019-03-02T06:47:56.852Z,95.82
2019-03-02T06:50:22.629Z,95.88
2019-03-02T06:52:48.449Z,95.49
2019-03-02T06:55:15.151Z,95.61
2019-03-02T06:57:40.960Z,95.66
2019-03-02T07:00:15.062Z,95.78
2019-03-02T07:02:40.887Z,95.48
2019-03-02T07:05:07.567Z,95.27
2019-03-02T07:07:33.474Z,95.11
2019-03-02T07:09:59.278Z,95.13
2019-03-02T07:12:25.066Z,94.34
2019-03-02T07:14:51.792Z,94.13
2019-03-02T07:17:19.735Z,94.02
2019-03-02T07:19:48.703Z,94.34
2019-03-02T07:22:16.847Z,93.69
2019-03-02T07:24:43.146Z,94.07
2019-03-02T07:27:08.954Z,93.19
2019-03-02T07:29:35.053Z,93.90
2019-03-02T07:32:00.870Z,93.41
2019-03-02T07:34:27.002Z,93.50
2019-03-02T07:36:53.088Z,93.79
2019-03-02T07:39:19.374Z,93.80
2019-03-02T07:41:45.431Z,93.93
2019-03-02T07:44:11.210Z,94.03
2019-03-02T07:46:37.043Z,93.88
2019-03-02T07:49:02.820Z,94.24
2019-03-02T07:51:28.914Z,93.89
2019-03-02T07:53:54.755Z,93.94
2019-03-02T07:56:20.876Z,93.81
2019-03-02T07:58:46.678Z,93.75
2019-03-02T08:01:16.604Z,93.98
2019-03-02T08:03:40.481Z,94.10
2019-03-02T08:06:06.304Z,93.61
2019-03-02T08:08:32.376Z,93.42
2019-03-02T08:10:58.201Z,93.53
2019-03-02T08:13:23.991Z,93.66
2019-03-02T08:15:49.795Z,93.61
2019-03-02T08:18:15.911Z,93.40
2019-03-02T08:20:41.746Z,93.85
2019-03-02T08:23:07.571Z,93.61
2019-03-02T08:25:33.352Z,93.58
2019-03-02T08:27:59.176Z,92.78
2019-03-02T08:30:29.952Z,92.96
2019-03-02T08:32:57.764Z,92.42
2019-03-02T08:35:23.718Z,92.41
2019-03-02T08:37:49.525Z,92.54
2019-03-02T08:40:19.480Z,92.59
2019-03-02T08:42:46.470Z,92.12
2019-03-02T08:45:16.060Z,92.57
2019-03-02T08:47:42.150Z,91.92
2019-03-02T08:50:21.492Z,92.27
2019-03-02T08:52:47.385Z,92.42
2019-03-02T08:55:18.941Z,92.34
2019-03-02T08:57:44.762Z,92.20
2019-03-02T09:00:14.579Z,92.34
2019-03-02T09:02:40.785Z,92.95
2019-03-02T09:05:06.902Z,93.52
2019-03-02T09:07:32.731Z,93.87
2019-03-02T09:09:58.559Z,94.12
2019-03-02T09:12:24.474Z,94.42
2019-03-02T09:14:50.293Z,94.62
2019-03-02T09:17:17.724Z,94.91
2019-03-02T09:19:43.945Z,94.06
2019-03-02T09:22:09.761Z,93.83
2019-03-02T09:24:35.597Z,94.16
2019-03-02T09:27:01.705Z,94.05
2019-03-02T09:29:27.490Z,93.68
2019-03-02T09:31:53.320Z,94.56
2019-03-02T09:34:19.124Z,94.78
2019-03-02T09:36:45.040Z,95.31
2019-03-02T09:39:10.915Z,95.30
2019-03-02T09:41:36.763Z,95.57
2019-03-02T09:44:02.953Z,95.10
2019-03-02T09:46:28.780Z,94.93
2019-03-02T09:48:56.882Z,94.96
2019-03-02T09:51:22.359Z,95.43
2019-03-02T09:53:48.152Z,95.25
2019-03-02T09:56:15.939Z,94.88
2019-03-02T09:58:41.880Z,96.29
2019-03-02T10:01:08.015Z,97.13
2019-03-02T10:03:33.839Z,97.90
2019-03-02T10:05:59.650Z,98.14
2019-03-02T10:08:25.453Z,97.86
2019-03-02T10:10:54.246Z,98.25
2019-03-02T10:13:20.058Z,98.61
2019-03-02T10:15:48.682Z,98.54
2019-03-02T10:18:14.871Z,98.78
2019-03-02T10:20:43.794Z,98.70
2019-03-02T10:23:09.568Z,98.32
2019-03-02T10:25:38.418Z,97.86
2019-03-02T10:28:05.057Z,96.03
2019-03-02T10:30:34.462Z,95.97
2019-03-02T10:33:00.242Z,95.12
2019-03-02T10:35:26.072Z,94.19
2019-03-02T10:37:52.198Z,94.18
2019-03-02T10:40:19.058Z,93.63
2019-03-02T10:42:45.156Z,93.91
2019-03-02T10:45:13.378Z,94.05
2019-03-02T10:47:39.258Z,92.96
2019-03-02T10:50:10.562Z,92.76
2019-03-02T10:52:36.370Z,92.06
2019-03-02T10:55:03.982Z,92.73
2019-03-02T10:57:29.777Z,92.69
2019-03-02T10:59:55.610Z,91.27
2019-03-02T11:02:25.860Z,89.90
2019-03-02T11:04:53.574Z,89.48
2019-03-02T11:07:24.322Z,87.25
2019-03-02T11:10:04.229Z,87.23
2019-03-02T11:12:39.763Z,86.59
2019-03-02T11:15:25.092Z,83.55
2019-03-02T11:17:55.674Z,80.90
2019-03-02T11:20:41.937Z,81.90
2019-03-02T11:23:15.713Z,81.02
2019-03-02T11:25:42.926Z,79.98
2019-03-02T11:28:13.427Z,75.63
2019-03-02T11:30:41.445Z,73.20
2019-03-02T11:33:30.688Z,70.00
2019-03-02T11:36:10.650Z,68.42
2019-03-02T11:38:44.441Z,70.91
2019-03-02T11:41:18.198Z,71.46
2019-03-02T11:43:57.853Z,71.74
2019-03-02T11:46:28.507Z,71.83
2019-03-02T11:48:59.105Z,72.21
2019-03-02T11:51:45.244Z,71.11
2019-03-02T11:54:18.787Z,71.48
2019-03-02T11:56:46.868Z,71.93
2019-03-02T11:59:26.646Z,73.10
2019-03-02T12:02:15.701Z,73.84
2019-03-02T12:04:42.935Z,72.78
2019-03-02T12:07:16.591Z,72.46
2019-03-02T12:10:05.321Z,71.23
2019-03-02T12:12:51.264Z,71.11
2019-03-02T12:15:28.323Z,66.83
2019-03-02T12:17:58.728Z,65.09
2019-03-02T12:20:41.441Z,63.16
2019-03-02T12:23:25.026Z,62.58
2019-03-02T12:26:11.040Z,61.96
2019-03-02T12:28:44.620Z,63.95
2019-03-02T12:31:12.321Z,63.99
2019-03-02T12:33:40.318Z,64.67
2019-03-02T12:36:20.290Z,64.85
2019-03-02T12:38:51.044Z,65.28
2019-03-02T12:41:19.073Z,68.06
2019-03-02T12:44:02.981Z,67.46
2019-03-02T12:46:51.328Z,69.59
2019-03-02T12:49:35.630Z,70.26
2019-03-02T12:52:12.181Z,68.84
2019-03-02T12:54:42.862Z,69.36
2019-03-02T12:57:14.746Z,69.78
2019-03-02T12:59:49.056Z,70.10
2019-03-02T13:02:33.545Z,70.33
2019-03-02T13:05:04.372Z,68.84
2019-03-02T13:07:34.969Z,70.21
2019-03-02T13:10:05.453Z,70.43
2019-03-02T13:12:42.180Z,69.44
2019-03-02T13:15:09.551Z,70.21
2019-03-02T13:17:38.509Z,69.47
2019-03-02T13:20:14.361Z,69.94
2019-03-02T13:22:48.513Z,70.53
2019-03-02T13:25:34.098Z,70.19
2019-03-02T13:28:11.769Z,70.50
2019-03-02T13:30:47.275Z,69.69
2019-03-02T13:33:24.244Z,69.96
2019-03-02T13:36:00.230Z,71.43
2019-03-02T13:38:34.611Z,70.56
2019-03-02T13:41:19.175Z,70.98
2019-03-02T13:43:46.884Z,71.37
2019-03-02T13:46:14.615Z,70.68
2019-03-02T13:48:50.165Z,71.42
2019-03-02T13:51:31.322Z,70.73
2019-03-02T13:54:03.023Z,71.79
2019-03-02T13:56:34.445Z,71.39
2019-03-02T13:59:04.893Z,71.45
2019-03-02T14:01:35.685Z,71.05
2019-03-02T14:04:13.066Z,71.71
2019-03-02T14:06:59.267Z,72.11
2019-03-02T14:09:32.913Z,69.77
2019-03-02T14:12:19.737Z,70.65
2019-03-02T14:14:49.540Z,69.76
2019-03-02T14:17:32.429Z,70.43
2019-03-02T14:20:20.590Z,70.80
2019-03-02T14:22:59.353Z,70.66
2019-03-02T14:25:27.329Z,70.24
2019-03-02T14:27:57.699Z,70.30
2019-03-02T14:30:36.335Z,70.01
2019-03-02T14:33:04.489Z,69.95
2019-03-02T14:35:32.457Z,68.77
2019-03-02T14:38:12.441Z,68.12
2019-03-02T14:40:40.786Z,68.93
2019-03-02T14:43:11.462Z,69.81
2019-03-02T14:45:43.136Z,69.23
2019-03-02T14:48:17.736Z,68.72
2019-03-02T14:50:48.332Z,68.44
2019-03-02T14:53:25.193Z,68.43
2019-03-02T14:56:02.373Z,68.57
2019-03-02T14:58:39.612Z,68.62
2019-03-02T15:01:16.496Z,69.37
2019-03-02T15:04:07.304Z,70.00
2019-03-02T15:06:47.560Z,69.59
2019-03-02T15:09:15.248Z,70.16
2019-03-02T15:14:25.654Z,70.22
2019-03-02T15:16:53.656Z,70.85
2019-03-02T15:19:27.335Z,68.47
2019-03-02T15:21:55.452Z,67.82
2019-03-02T15:24:38.209Z,68.42
2019-03-02T15:27:05.907Z,70.38
2019-03-02T15:29:46.323Z,68.93
2019-03-02T15:32:28.688Z,69.83
2019-03-02T15:34:57.882Z,69.24
2019-03-02T15:37:32.459Z,70.04
2019-03-02T15:40:02.710Z,70.86
2019-03-02T15:42:36.469Z,71.28
2019-03-02T15:45:23.353Z,71.96
2019-03-02T15:48:10.381Z,72.13
2019-03-02T15:50:40.917Z,72.07
2019-03-02T15:53:20.333Z,72.61
2019-03-02T15:55:59.864Z,72.76
2019-03-02T15:58:27.542Z,73.08
2019-03-02T16:01:03.322Z,73.03
2019-03-02T16:03:33.715Z,73.67
2019-03-02T16:06:05.152Z,73.93
2019-03-02T16:08:32.863Z,74.04
2019-03-02T16:11:06.142Z,74.23
2019-03-02T16:13:50.612Z,74.26
2019-03-02T16:16:28.877Z,74.73
2019-03-02T16:19:15.145Z,74.58
2019-03-02T16:21:45.939Z,74.53
2019-03-02T16:24:28.923Z,74.64
2019-03-02T16:26:56.921Z,74.78
2019-03-02T16:29:30.754Z,74.95
2019-03-02T16:32:01.525Z,75.19
2019-03-02T16:34:47.467Z,75.53
2019-03-02T16:37:17.029Z,76.00
2019-03-02T16:39:46.837Z,75.59
2019-03-02T16:42:29.710Z,75.44
2019-03-02T16:44:57.400Z,75.13
2019-03-02T16:47:31.503Z,75.02
2019-03-02T16:49:59.238Z,75.38
2019-03-02T16:52:44.302Z,75.17
2019-03-02T16:55:21.230Z,75.84
2019-03-02T16:57:57.760Z,76.43
2019-03-02T17:00:37.432Z,77.20
2019-03-02T17:03:11.683Z,76.81
2019-03-02T17:05:42.010Z,76.89
2019-03-02T17:08:12.876Z,77.32
2019-03-02T17:10:56.071Z,77.75
2019-03-02T17:13:27.765Z,78.02
2019-03-02T17:15:58.839Z,78.28
2019-03-02T17:18:41.729Z,78.47
2019-03-02T17:21:16.539Z,78.52
2019-03-02T17:23:46.085Z,78.48
2019-03-02T17:26:14.097Z,78.72
2019-03-02T17:28:41.804Z,78.67
2019-03-02T17:31:09.814Z,78.74
2019-03-02T17:33:37.533Z,79.05
2019-03-02T17:36:10.915Z,79.26
2019-03-02T17:38:38.898Z,79.22
2019-03-02T17:41:19.567Z,79.68
2019-03-02T17:43:47.699Z,79.86
2019-03-02T17:46:17.988Z,79.91
2019-03-02T17:48:51.482Z,80.04
2019-03-02T17:51:37.117Z,79.95
2019-03-02T17:54:08.020Z,79.82
2019-03-02T17:56:52.647Z,79.74
2019-03-02T17:59:39.693Z,79.34
2019-03-02T18:02:09.006Z,79.18
2019-03-02T18:04:53.534Z,78.98
2019-03-02T18:07:21.511Z,79.59
2019-03-02T18:10:07.319Z,80.22
2019-03-02T18:12:35.038Z,80.50
2019-03-02T18:15:02.749Z,80.88
2019-03-02T18:17:47.194Z,81.13
2019-03-02T18:20:15.996Z,81.21
2019-03-02T18:22:42.976Z,81.33
2019-03-02T18:25:11.976Z,81.55
2019-03-02T18:27:38.709Z,81.78
2019-03-02T18:30:08.393Z,82.13
2019-03-02T18:32:35.436Z,82.27
2019-03-02T18:35:02.741Z,83.02
2019-03-02T18:37:30.531Z,82.31
2019-03-02T18:39:58.274Z,81.96
2019-03-02T18:42:27.042Z,81.77
2019-03-02T18:44:54.613Z,82.02
2019-03-02T18:47:20.233Z,82.26
2019-03-02T18:49:51.491Z,82.17
2019-03-02T18:52:21.261Z,82.51
2019-03-02T18:54:49.277Z,82.67
2019-03-02T18:57:16.098Z,82.68
2019-03-02T18:59:43.364Z,82.76
2019-03-02T19:02:11.628Z,82.80
2019-03-02T19:04:38.596Z,83.14
2019-03-02T19:07:04.988Z,82.75
2019-03-02T19:09:32.360Z,82.91
2019-03-02T19:11:59.104Z,83.20
2019-03-02T19:14:24.896Z,83.58
2019-03-02T19:16:53.927Z,83.56
2019-03-02T19:19:19.725Z,83.48
2019-03-02T19:21:45.552Z,83.75
2019-03-02T19:24:11.344Z,84.03
2019-03-02T19:26:37.439Z,84.54
2019-03-02T19:29:03.335Z,84.80
2019-03-02T19:31:29.175Z,84.97
2019-03-02T19:33:55.238Z,85.07
2019-03-02T19:36:21.060Z,85.62
2019-03-02T19:38:46.949Z,85.90
2019-03-02T19:41:12.761Z,85.98
2019-03-02T19:43:38.739Z,86.04
2019-03-02T19:46:04.656Z,86.27
2019-03-02T19:48:31.440Z,86.30
2019-03-02T19:50:57.234Z,86.49
2019-03-02T19:53:23.357Z,87.08
2019-03-02T19:55:49.153Z,87.31
2019-03-02T19:58:14.996Z,88.00
2019-03-02T20:00:41.220Z,88.34
2019-03-02T20:03:07.155Z,88.72
2019-03-02T20:05:32.969Z,88.55
2019-03-02T20:07:58.784Z,88.50
2019-03-02T20:10:25.371Z,88.85
2019-03-02T20:12:51.171Z,88.84
2019-03-02T20:15:19.787Z,88.47
2019-03-02T20:17:45.598Z,88.32
2019-03-02T20:20:13.626Z,88.57
2019-03-02T20:22:40.129Z,88.38
2019-03-02T20:25:08.955Z,88.43
2019-03-02T20:27:34.854Z,88.31
2019-03-02T20:30:00.660Z,88.39
2019-03-02T20:32:26.754Z,88.36
2019-03-02T20:34:52.557Z,88.53
2019-03-02T20:37:18.440Z,88.58
2019-03-02T20:39:44.252Z,88.44
2019-03-02T20:42:10.086Z,89.04
2019-03-02T20:44:35.911Z,89.17
2019-03-02T20:47:01.746Z,89.37
2019-03-02T20:49:27.553Z,89.29
2019-03-02T20:51:53.468Z,89.38
2019-03-02T20:54:19.305Z,89.34
2019-03-02T20:56:45.386Z,89.61
2019-03-02T20:59:11.592Z,89.88
2019-03-02T21:01:37.678Z,90.08
2019-03-02T21:04:03.734Z,90.39
2019-03-02T21:06:29.558Z,90.65
2019-03-02T21:08:55.598Z,90.74
2019-03-02T21:11:21.385Z,90.96
2019-03-02T21:13:47.508Z,91.05
2019-03-02T21:16:13.565Z,91.12
2019-03-02T21:18:39.378Z,91.17
2019-03-02T21:21:05.220Z,91.18
2019-03-02T21:23:31.080Z,91.60
2019-03-02T21:25:56.911Z,91.58
2019-03-02T21:28:25.518Z,91.75
2019-03-02T21:30:51.345Z,92.21
2019-03-02T21:33:20.187Z,92.67
2019-03-02T21:35:45.982Z,92.79
2019-03-02T21:38:15.171Z,93.09
2019-03-02T21:40:40.986Z,93.21
2019-03-02T21:43:09.961Z,93.33
2019-03-02T21:45:35.790Z,94.45
2019-03-02T21:48:04.445Z,95.45
2019-03-02T21:50:38.667Z,95.11
2019-03-02T21:53:04.574Z,95.33
2019-03-02T21:55:30.438Z,95.18
2019-03-02T21:57:56.505Z,95.01
2019-03-02T22:00:26.968Z,95.09
2019-03-02T22:02:52.889Z,95.08
2019-03-02T22:05:18.681Z,95.45
2019-03-02T22:07:44.469Z,95.90
2019-03-02T22:10:14.099Z,96.43
2019-03-02T22:12:39.972Z,96.79
2019-03-02T22:15:09.081Z,97.20
2019-03-02T22:17:34.886Z,97.34
2019-03-02T22:20:00.734Z,97.58
2019-03-02T22:22:26.691Z,97.81
2019-03-02T22:24:52.517Z,98.00
2019-03-02T22:27:18.337Z,98.66
2019-03-02T22:29:44.139Z,98.66
2019-03-02T22:32:09.986Z,98.67
2019-03-02T22:34:37.961Z,98.67
2019-03-02T22:37:03.739Z,98.86
2019-03-02T22:39:29.894Z,99.00
2019-03-02T22:41:55.963Z,99.04
2019-03-02T22:44:21.819Z,99.01
2019-03-02T22:46:50.594Z,99.24
2019-03-02T22:49:16.382Z,99.23
2019-03-02T22:51:45.256Z,99.40
2019-03-02T22:54:11.089Z,99.49
2019-03-02T22:56:39.673Z,99.22
2019-03-02T22:59:05.375Z,99.02
2019-03-02T23:01:38.552Z,98.85
2019-03-02T23:04:04.692Z,98.92
2019-03-02T23:06:30.749Z,98.64
2019-03-02T23:08:57.753Z,98.07
2019-03-02T23:11:23.681Z,97.89
2019-03-02T23:13:49.810Z,97.67
2019-03-02T23:16:15.671Z,97.19
2019-03-02T23:18:41.496Z,96.72
2019-03-02T23:21:07.313Z,96.62
2019-03-02T23:23:35.913Z,96.53
2019-03-02T23:26:01.764Z,96.01
2019-03-02T23:28:29.796Z,96.27
2019-03-02T23:30:55.867Z,96.07
2019-03-02T23:33:26.504Z,95.91
2019-03-02T23:35:52.359Z,95.91
2019-03-02T23:38:19.573Z,95.82
2019-03-02T23:40:46.110Z,95.99
2019-03-02T23:43:12.203Z,95.47
2019-03-02T23:45:38.464Z,95.31
2019-03-02T23:48:04.251Z,95.58
2019-03-02T23:50:32.912Z,95.49
2019-03-02T23:52:58.850Z,95.56
2019-03-02T23:55:26.056Z,95.24
2019-03-02T23:57:52.162Z,95.24
